KRKS/RKS METAR and TAF weather

Enter ICAO airport designator
Station Type Date Time Source
KRKS METAR 2022/06/28 22:54 UTC NOAA

KRKS 282254Z AUTO 33005KT 10SM CLR 29/M04 A3027 RMK AO2 SLP156 T02891039


Station Type Date Time Source
KRKS Decoded METAR 2022/06/28 22:54 UTC NOAA

ROCK SPRINGS-SWEETWATER CO, WY, United States (KRKS) 41-36N 109-03W
Jun 28, 2022 - 06:54 PM EDT / 2022.06.28 2254 UTC
Wind: from the NNW (330 degrees) at 6 MPH (5 KT):0
Visibility: 10 mile(s):0
Sky conditions: clear
Temperature: 84.0 F (28.9 C)
Dew Point: 25.0 F (-3.9 C)
Relative Humidity: 11%
Pressure (altimeter): 30.27 in. Hg (1025 hPa)
ob: KRKS 282254Z AUTO 33005KT 10SM CLR 29/M04 A3027 RMK AO2 SLP156 T02891039
cycle: 23

Station Type Date Time Source
KRKS TAF 2022/06/28 18:30 UTC NOAA

TAF KRKS 281727Z 2818/2918 26010KT P6SM SKC
FM282300 26010G20KT P6SM VCSH SCT110 BKN150
FM290300 24008KT P6SM SCT110 BKN140
FM291600 25016G24KT P6SM SCT140

Example: see airport list